Time;durP1;ratioP1;P1;durP2;ratioP2;P2;SDS_P1;SDS_P2;PMS_P1;PMS_P2;Temp;Humidity;BMP_temperature;BMP_pressure;BME280_temperature;BME280_humidity;BME280_pressure;Samples;Min_cycle;Max_cycle;Signal;HPM_P1;HPM_P2
2023/04/14 00:01:19;;;;;;;3.42;1.65;;;4.90;99.90;;;;;;5094794;28;20096;-79
2023/04/14 00:03:45;;;;;;;3.20;1.40;;;4.80;99.90;;;;;;5078065;28;20082;-79
2023/04/14 00:06:10;;;;;;;3.20;1.73;;;4.60;99.90;;;;;;5077833;28;20481;-79
2023/04/14 00:08:36;;;;;;;3.22;1.65;;;4.60;99.90;;;;;;5095770;28;20044;-79
2023/04/14 00:11:02;;;;;;;2.88;1.60;;;4.50;99.90;;;;;;5094832;28;20028;-79
2023/04/14 00:13:27;;;;;;;4.22;2.00;;;4.50;99.90;;;;;;5095932;28;20044;-79
2023/04/14 00:15:54;;;;;;;3.92;1.90;;;4.50;99.90;;;;;;5094417;28;20400;-79
2023/04/14 00:18:20;;;;;;;2.60;1.60;;;4.60;99.90;;;;;;5094447;28;20039;-79
2023/04/14 00:20:46;;;;;;;3.42;1.92;;;4.70;99.90;;;;;;5094294;28;20046;-79
2023/04/14 00:23:12;;;;;;;3.83;1.60;;;4.80;99.90;;;;;;5094616;28;20083;-79
2023/04/14 00:25:38;;;;;;;4.38;1.58;;;4.70;99.90;;;;;;5094256;28;20075;-79
2023/04/14 00:28:04;;;;;;;2.13;1.30;;;4.50;99.90;;;;;;5094061;28;20063;-79
2023/04/14 00:30:29;;;;;;;3.45;1.75;;;4.50;99.90;;;;;;5094073;28;20177;-79
2023/04/14 00:32:55;;;;;;;3.47;1.30;;;4.50;99.90;;;;;;5095565;28;20118;-79
2023/04/14 00:35:21;;;;;;;3.28;1.60;;;4.40;99.90;;;;;;5077191;28;20380;-79
2023/04/14 00:37:46;;;;;;;3.08;1.50;;;4.30;99.90;;;;;;5076797;28;20036;-79
2023/04/14 00:40:12;;;;;;;3.28;1.90;;;4.30;99.90;;;;;;5094341;28;20032;-79
2023/04/14 00:42:44;;;;;;;2.97;1.58;;;4.40;99.90;;;;;;5095448;28;20051;-79
2023/04/14 00:45:11;;;;;;;2.58;1.50;;;4.40;99.90;;;;;;5094127;28;20044;-79
2023/04/14 00:47:38;;;;;;;3.10;1.60;;;4.40;99.90;;;;;;5093861;28;20059;-79
2023/04/14 00:50:04;;;;;;;2.80;1.42;;;4.50;99.90;;;;;;5076866;28;20043;-79
2023/04/14 00:52:31;;;;;;;3.95;1.60;;;4.50;99.90;;;;;;5094011;28;20044;-79
2023/04/14 00:54:58;;;;;;;2.50;1.80;;;4.60;99.90;;;;;;5093745;28;20043;-79
2023/04/14 00:57:25;;;;;;;2.38;1.40;;;4.60;99.90;;;;;;5076788;28;20046;-79
2023/04/14 00:59:52;;;;;;;2.33;1.50;;;4.50;99.90;;;;;;5076595;28;20040;-79
2023/04/14 01:02:18;;;;;;;1.67;1.17;;;4.60;99.90;;;;;;5093822;28;20124;-79
2023/04/14 01:04:44;;;;;;;3.05;1.30;;;4.40;99.90;;;;;;5093626;28;20083;-79
2023/04/14 01:07:10;;;;;;;2.58;1.38;;;4.30;99.90;;;;;;5094986;28;20044;-79
2023/04/14 01:09:36;;;;;;;2.45;1.45;;;4.20;99.90;;;;;;5076430;28;20046;-79
2023/04/14 01:12:14;;;;;;;1.98;1.40;;;4.20;99.90;;;;;;5094731;28;20043;-79
2023/04/14 01:15:17;;;;;;;2.13;1.30;;;4.30;99.90;;;;;;5076636;28;20434;-79
2023/04/14 01:18:09;;;;;;;2.72;1.65;;;4.30;99.90;;;;;;5091325;28;20457;-79
2023/04/14 01:20:48;;;;;;;2.85;1.70;;;4.50;99.90;;;;;;5094109;28;20498;-79
2023/04/14 01:23:34;;;;;;;3.05;1.60;;;4.60;99.90;;;;;;5093353;28;20113;-79
2023/04/14 01:26:25;;;;;;;2.03;1.40;;;4.70;99.90;;;;;;5094529;28;20164;-79
2023/04/14 01:28:57;;;;;;;2.55;1.48;;;4.80;99.90;;;;;;5095020;28;20108;-79
2023/04/14 01:31:27;;;;;;;2.55;1.48;;;4.90;99.90;;;;;;5094537;28;20055;-79
2023/04/14 01:34:19;;;;;;;3.40;1.50;;;5.00;99.90;;;;;;5094522;28;20044;-79
2023/04/14 01:36:57;;;;;;;3.15;1.40;;;5.10;99.90;;;;;;5093199;28;20040;-79
2023/04/14 01:39:30;;;;;;;2.58;1.33;;;5.20;99.90;;;;;;5092754;28;20043;-79
2023/04/14 01:42:00;;;;;;;2.28;1.25;;;5.20;99.90;;;;;;5092800;28;20048;-79
2023/04/14 01:44:29;;;;;;;2.65;1.48;;;5.20;99.90;;;;;;5093150;28;20097;-79
2023/04/14 01:46:59;;;;;;;2.50;1.63;;;5.10;99.90;;;;;;5093092;28;20092;-79
2023/04/14 01:49:27;;;;;;;1.88;1.40;;;4.90;99.90;;;;;;5092956;28;20058;-79
2023/04/14 01:51:55;;;;;;;1.85;1.48;;;4.80;99.90;;;;;;5092566;28;20519;-79
2023/04/14 01:54:22;;;;;;;2.53;1.38;;;4.70;99.90;;;;;;5075692;28;20040;-79
2023/04/14 01:56:50;;;;;;;3.25;2.22;;;4.60;99.90;;;;;;5075972;28;20059;-79
2023/04/14 01:59:17;;;;;;;2.00;1.30;;;4.40;99.90;;;;;;5092782;28;20039;-79
2023/04/14 02:01:45;;;;;;;2.58;1.80;;;4.20;99.90;;;;;;5092733;28;20510;-79
2023/04/14 02:04:11;;;;;;;2.85;1.30;;;4.10;99.90;;;;;;5092669;28;20043;-79
2023/04/14 02:06:38;;;;;;;1.95;1.40;;;4.00;99.90;;;;;;5075792;28;20395;-79
2023/04/14 02:09:09;;;;;;;1.60;1.15;;;4.10;99.90;;;;;;5093936;28;20119;-79
2023/04/14 02:11:36;;;;;;;1.67;1.20;;;4.10;99.90;;;;;;5093909;28;20072;-79
2023/04/14 02:14:03;;;;;;;2.13;1.15;;;4.20;99.90;;;;;;5093830;28;20044;-79
2023/04/14 02:16:29;;;;;;;2.83;1.50;;;4.10;99.90;;;;;;5093949;28;20058;-79
2023/04/14 02:18:57;;;;;;;3.05;1.38;;;4.10;99.90;;;;;;5092277;28;20040;-79
2023/04/14 02:21:25;;;;;;;2.35;1.30;;;4.10;99.90;;;;;;5075696;28;20036;-79
2023/04/14 02:23:51;;;;;;;1.88;1.13;;;4.20;99.90;;;;;;5092346;28;20131;-79
2023/04/14 02:26:21;;;;;;;3.08;1.65;;;4.30;99.90;;;;;;5092586;28;20071;-79
2023/04/14 02:29:12;;;;;;;2.00;1.17;;;4.30;99.90;;;;;;5093045;28;20058;-79
2023/04/14 02:31:43;;;;;;;3.70;1.33;;;4.30;99.90;;;;;;5093485;28;20095;-79
2023/04/14 02:34:11;;;;;;;1.38;1.20;;;4.30;99.90;;;;;;5092027;28;20187;-79
2023/04/14 02:36:46;;;;;;;2.85;1.40;;;4.40;99.90;;;;;;5093566;28;20059;-79
2023/04/14 02:39:20;;;;;;;2.42;1.40;;;4.60;99.90;;;;;;5093228;28;20056;-79
2023/04/14 02:41:52;;;;;;;3.50;1.40;;;4.70;99.90;;;;;;5092352;28;20360;-79
2023/04/14 02:44:24;;;;;;;2.53;1.50;;;4.90;99.90;;;;;;5093525;28;20040;-79
2023/04/14 02:47:08;;;;;;;1.85;1.38;;;5.00;99.90;;;;;;5075370;28;20044;-79
2023/04/14 02:49:39;;;;;;;2.50;1.38;;;5.10;99.90;;;;;;5075077;28;20084;-79
2023/04/14 02:52:05;;;;;;;2.20;1.30;;;5.20;99.90;;;;;;5091866;28;20086;-79
2023/04/14 02:54:37;;;;;;;1.63;1.30;;;5.20;99.90;;;;;;5091937;28;20044;-79
2023/04/14 02:57:04;;;;;;;2.58;1.33;;;5.10;99.90;;;;;;5075032;28;20036;-79
2023/04/14 02:59:31;;;;;;;2.60;1.52;;;5.10;99.90;;;;;;5092257;28;20490;-79
2023/04/14 03:02:00;;;;;;;2.13;1.60;;;5.10;99.90;;;;;;5074983;28;20051;-79
2023/04/14 03:04:32;;;;;;;2.15;1.45;;;5.10;99.90;;;;;;5092142;28;20123;-79
2023/04/14 03:06:59;;;;;;;3.38;1.58;;;5.20;99.90;;;;;;5074953;28;20138;-79
2023/04/14 03:09:26;;;;;;;2.15;1.48;;;5.30;99.90;;;;;;5074774;28;20121;-79
2023/04/14 03:11:56;;;;;;;2.20;1.60;;;5.30;99.90;;;;;;5091927;28;20148;-79
2023/04/14 03:14:22;;;;;;;3.37;1.77;;;5.30;99.90;;;;;;5093287;28;20071;-79
2023/04/14 03:16:52;;;;;;;3.40;1.45;;;5.30;99.90;;;;;;5091634;28;20302;-79
2023/04/14 03:19:22;;;;;;;2.88;1.52;;;5.30;99.90;;;;;;5093253;28;20392;-79
2023/04/14 03:21:53;;;;;;;2.92;1.50;;;5.30;99.90;;;;;;5094039;28;20080;-79
2023/04/14 03:24:23;;;;;;;2.58;1.67;;;5.40;99.90;;;;;;5092116;28;20100;-79
2023/04/14 03:26:56;;;;;;;3.17;1.35;;;5.40;99.90;;;;;;5091685;28;20092;-79
2023/04/14 03:29:26;;;;;;;2.10;1.48;;;5.40;99.90;;;;;;5093277;28;20427;-79
2023/04/14 03:31:55;;;;;;;2.33;1.70;;;5.50;99.90;;;;;;5091735;28;20541;-78
2023/04/14 03:34:24;;;;;;;2.67;1.65;;;5.50;99.90;;;;;;5074622;28;20036;-79
2023/04/14 03:36:53;;;;;;;3.55;1.65;;;5.50;99.90;;;;;;5091714;28;20086;-79
2023/04/14 03:39:22;;;;;;;2.57;1.60;;;5.50;99.90;;;;;;5091613;28;20135;-79
2023/04/14 03:41:50;;;;;;;3.67;1.73;;;5.60;99.90;;;;;;5091886;28;20281;-79
2023/04/14 03:44:18;;;;;;;2.65;1.90;;;5.60;99.90;;;;;;5095104;28;20085;-79
2023/04/14 03:46:44;;;;;;;2.47;1.55;;;5.60;99.90;;;;;;5095523;28;20093;-79
2023/04/14 03:49:15;;;;;;;4.00;1.50;;;5.60;99.90;;;;;;5078376;28;20028;-79
2023/04/14 03:51:44;;;;;;;3.28;2.13;;;5.60;99.90;;;;;;5078338;28;20032;-79
2023/04/14 03:54:11;;;;;;;3.35;1.73;;;5.50;99.90;;;;;;5095011;28;20047;-79
2023/04/14 03:56:40;;;;;;;2.65;1.42;;;5.40;99.90;;;;;;5096446;28;20044;-79
2023/04/14 03:59:10;;;;;;;1.92;1.40;;;5.30;99.90;;;;;;5096118;28;20032;-79
2023/04/14 04:01:39;;;;;;;3.03;1.63;;;5.10;99.90;;;;;;5095189;28;20395;-79
2023/04/14 04:04:05;;;;;;;3.13;1.65;;;4.80;99.90;;;;;;5096260;28;20040;-79
2023/04/14 04:06:32;;;;;;;1.40;1.30;;;4.60;99.90;;;;;;5096157;28;20043;-79
2023/04/14 04:08:58;;;;;;;2.40;1.52;;;4.50;99.90;;;;;;5094655;28;20043;-79
2023/04/14 04:11:26;;;;;;;2.95;1.42;;;4.40;99.90;;;;;;5077553;28;20038;-79
2023/04/14 04:13:54;;;;;;;2.17;1.50;;;4.30;99.90;;;;;;5077918;28;20511;-79
2023/04/14 04:16:21;;;;;;;2.35;1.40;;;4.20;99.90;;;;;;5094835;28;20036;-79
2023/04/14 04:18:48;;;;;;;3.17;1.60;;;4.10;99.90;;;;;;5077555;28;20063;-79
2023/04/14 04:21:16;;;;;;;2.42;1.45;;;4.10;99.90;;;;;;5094764;28;20044;-79
2023/04/14 04:23:46;;;;;;;1.45;1.35;;;4.00;99.90;;;;;;5094346;28;20044;-79
2023/04/14 04:26:12;;;;;;;1.77;1.10;;;3.90;99.90;;;;;;5095860;28;20068;-79
2023/04/14 04:28:39;;;;;;;1.63;1.23;;;3.80;99.90;;;;;;5094645;28;20040;-79
2023/04/14 04:31:08;;;;;;;1.55;1.42;;;3.70;99.90;;;;;;5094481;28;20051;-79
2023/04/14 04:33:34;;;;;;;2.45;1.67;;;3.70;99.90;;;;;;5094049;28;20082;-79
2023/04/14 04:36:00;;;;;;;1.58;1.38;;;3.80;99.90;;;;;;5095756;28;20067;-79
2023/04/14 04:38:26;;;;;;;2.35;1.33;;;3.50;99.90;;;;;;5093932;28;20055;-79
2023/04/14 04:40:52;;;;;;;2.38;1.40;;;3.40;99.90;;;;;;5077124;28;20040;-79
2023/04/14 04:43:20;;;;;;;3.85;1.85;;;3.10;99.90;;;;;;5077119;28;20039;-79
2023/04/14 04:46:05;;;;;;;2.30;1.80;;;3.10;99.90;;;;;;5094208;28;20046;-79
2023/04/14 04:48:30;;;;;;;2.17;1.70;;;3.10;99.90;;;;;;5077304;28;20128;-79
2023/04/14 04:50:56;;;;;;;2.55;1.80;;;3.20;99.90;;;;;;5076982;28;20477;-79
2023/04/14 04:53:22;;;;;;;3.20;2.00;;;3.20;99.90;;;;;;5093552;28;20050;-79
2023/04/14 04:55:47;;;;;;;2.45;1.70;;;3.30;99.90;;;;;;5093118;28;20398;-79
2023/04/14 04:58:13;;;;;;;1.98;1.60;;;3.30;99.90;;;;;;5094941;28;20080;-78
2023/04/14 05:00:38;;;;;;;2.03;1.70;;;3.40;99.90;;;;;;5093661;28;20071;-79
2023/04/14 05:03:04;;;;;;;2.80;1.95;;;3.40;99.90;;;;;;5095259;28;20055;-78
2023/04/14 05:05:34;;;;;;;2.55;1.83;;;3.60;99.90;;;;;;5095082;28;20436;-78
2023/04/14 05:08:00;;;;;;;2.75;1.88;;;3.70;99.90;;;;;;5095155;28;20040;-78
2023/04/14 05:10:26;;;;;;;2.58;1.80;;;3.70;99.90;;;;;;5094969;28;20360;-78
2023/04/14 05:12:51;;;;;;;1.63;1.48;;;3.70;99.90;;;;;;5094866;28;20040;-78
2023/04/14 05:15:17;;;;;;;1.52;1.40;;;3.80;99.90;;;;;;5076706;28;20055;-78
2023/04/14 05:17:42;;;;;;;1.75;1.65;;;3.80;99.90;;;;;;5093331;28;20085;-72
2023/04/14 05:20:09;;;;;;;3.50;2.35;;;3.80;99.90;;;;;;5127442;27;20040;-78
2023/04/14 05:22:34;;;;;;;2.92;2.55;;;4.00;99.90;;;;;;5094738;28;20040;-79
2023/04/14 05:25:00;;;;;;;5.13;4.05;;;4.00;99.90;;;;;;5094766;28;20464;-76
2023/04/14 05:27:26;;;;;;;5.30;4.80;;;4.20;99.90;;;;;;5093084;28;20564;-78
2023/04/14 05:29:51;;;;;;;5.50;4.70;;;4.20;99.90;;;;;;5093046;28;20036;-78
2023/04/14 05:32:17;;;;;;;4.07;3.65;;;4.30;99.90;;;;;;5076138;28;20036;-77
2023/04/14 05:34:43;;;;;;;3.15;2.85;;;4.40;99.90;;;;;;5093057;28;20052;-79
2023/04/14 05:37:08;;;;;;;2.55;2.35;;;4.50;99.90;;;;;;5094489;28;20039;-77
2023/04/14 05:39:34;;;;;;;2.53;2.25;;;4.60;99.90;;;;;;5092758;28;20056;-77
2023/04/14 05:42:00;;;;;;;2.95;2.38;;;4.70;99.90;;;;;;5094417;28;20119;-78
2023/04/14 05:44:25;;;;;;;3.28;2.42;;;4.70;99.90;;;;;;5094964;28;20043;-79
2023/04/14 05:46:51;;;;;;;4.30;2.30;;;4.80;99.90;;;;;;5094507;28;20157;-81
2023/04/14 05:49:17;;;;;;;2.83;2.45;;;4.90;99.90;;;;;;5094010;28;20032;-79
2023/04/14 05:51:42;;;;;;;3.15;2.13;;;5.10;99.90;;;;;;5075701;28;20036;-79
2023/04/14 05:54:08;;;;;;;3.78;2.55;;;5.10;99.90;;;;;;5094187;28;20122;-78
2023/04/14 05:56:34;;;;;;;3.45;2.38;;;5.20;99.90;;;;;;5093480;28;20036;-79
2023/04/14 05:59:00;;;;;;;3.08;2.00;;;5.40;99.90;;;;;;5092675;28;20061;-83
2023/04/14 06:01:26;;;;;;;2.90;2.00;;;5.40;99.90;;;;;;5093884;28;20433;-84
2023/04/14 06:03:51;;;;;;;2.40;1.77;;;5.40;99.90;;;;;;5093837;28;20040;-86
2023/04/14 06:06:18;;;;;;;3.92;2.15;;;5.50;99.90;;;;;;5092641;28;20118;-86
2023/04/14 06:08:44;;;;;;;2.53;2.22;;;5.50;99.90;;;;;;5094152;28;20044;-86
2023/04/14 06:11:10;;;;;;;3.45;1.80;;;5.60;99.90;;;;;;5094150;28;20039;-86
2023/04/14 06:13:36;;;;;;;3.00;1.90;;;5.60;99.90;;;;;;5075861;28;20040;-86
2023/04/14 06:16:02;;;;;;;3.47;1.77;;;5.70;99.90;;;;;;5076062;28;20063;-85
2023/04/14 06:18:28;;;;;;;3.25;2.15;;;5.70;99.90;;;;;;5093930;28;20036;-85
2023/04/14 06:20:53;;;;;;;3.13;1.90;;;5.80;99.90;;;;;;5093456;28;20043;-89
2023/04/14 06:23:20;;;;;;;3.88;1.98;;;5.80;99.90;;;;;;5076134;28;20446;-85
2023/04/14 06:25:46;;;;;;;2.70;2.10;;;5.80;99.90;;;;;;5093656;28;20089;-85
2023/04/14 06:28:12;;;;;;;2.47;2.22;;;6.00;99.90;;;;;;5093878;28;20043;-86
2023/04/14 06:30:37;;;;;;;2.95;2.03;;;6.00;99.90;;;;;;5093874;28;20130;-84
2023/04/14 06:33:03;;;;;;;3.92;2.00;;;6.00;99.90;;;;;;5075486;28;20452;-84
2023/04/14 06:35:33;;;;;;;3.08;1.67;;;6.10;99.90;;;;;;5127489;27;20036;-88
2023/04/14 06:38:00;;;;;;;3.10;1.80;;;6.10;99.90;;;;;;5092267;28;20488;-85
2023/04/14 06:40:26;;;;;;;2.75;1.80;;;6.20;99.90;;;;;;5092535;28;20051;-84
2023/04/14 06:42:51;;;;;;;3.53;1.92;;;6.20;99.90;;;;;;5092531;28;20044;-85
2023/04/14 06:45:17;;;;;;;2.90;1.67;;;6.20;99.90;;;;;;5092790;28;20115;-86
2023/04/14 06:47:43;;;;;;;2.80;1.58;;;6.30;99.90;;;;;;5092178;28;20145;-84
2023/04/14 06:50:09;;;;;;;2.85;1.75;;;6.40;99.90;;;;;;5126382;28;20124;-84
2023/04/14 06:52:34;;;;;;;3.90;1.85;;;6.40;99.90;;;;;;5075481;28;20093;-83
2023/04/14 06:55:00;;;;;;;1.90;1.60;;;6.50;99.90;;;;;;5075185;28;20119;-83
2023/04/14 06:57:26;;;;;;;2.45;1.52;;;6.50;99.90;;;;;;5091980;28;20084;-83
2023/04/14 06:59:52;;;;;;;2.22;1.70;;;6.60;99.90;;;;;;5093566;28;20119;-82
2023/04/14 07:02:17;;;;;;;3.15;1.88;;;6.60;99.90;;;;;;5075138;28;20135;-83
2023/04/14 07:04:43;;;;;;;1.88;1.50;;;6.70;99.90;;;;;;5091991;28;20051;-83
2023/04/14 07:07:08;;;;;;;2.25;1.55;;;6.80;99.90;;;;;;5093471;28;20043;-83
2023/04/14 07:09:34;;;;;;;3.40;1.45;;;6.80;99.90;;;;;;5092227;28;20082;-83
2023/04/14 07:12:00;;;;;;;2.80;1.50;;;7.00;99.90;;;;;;5074909;28;20043;-83
2023/04/14 07:14:26;;;;;;;2.78;1.50;;;7.00;99.90;;;;;;5074986;28;20031;-84
2023/04/14 07:16:52;;;;;;;2.33;1.25;;;7.00;99.90;;;;;;5092161;28;20365;-84
2023/04/14 07:19:18;;;;;;;3.17;1.48;;;7.10;99.90;;;;;;5078707;28;20038;-83
2023/04/14 07:21:47;;;;;;;2.53;1.50;;;7.20;99.90;;;;;;5095621;28;20067;-83
2023/04/14 07:24:13;;;;;;;2.85;1.63;;;7.30;99.90;;;;;;5095584;28;20127;-83
2023/04/14 07:26:38;;;;;;;4.32;1.85;;;7.40;99.90;;;;;;5078606;28;20079;-83
2023/04/14 07:29:04;;;;;;;4.47;2.15;;;7.50;99.90;;;;;;5097054;28;20036;-85
2023/04/14 07:31:34;;;;;;;3.28;1.60;;;7.50;99.90;;;;;;5095912;28;20452;-84
2023/04/14 07:34:00;;;;;;;2.22;1.15;;;7.60;99.90;;;;;;5078643;28;20044;-85
2023/04/14 07:36:26;;;;;;;3.00;2.20;;;7.60;99.90;;;;;;5095423;28;20073;-85
2023/04/14 07:38:52;;;;;;;3.97;2.00;;;7.70;99.90;;;;;;5095286;28;20059;-84
2023/04/14 07:41:18;;;;;;;2.13;1.65;;;7.80;99.90;;;;;;5095337;28;20090;-83
2023/04/14 07:43:45;;;;;;;3.50;1.70;;;7.90;99.90;;;;;;5078766;28;20071;-85
2023/04/14 07:46:11;;;;;;;3.08;1.75;;;8.00;99.90;;;;;;5078340;28;20440;-84
2023/04/14 07:48:37;;;;;;;4.88;3.80;;;8.20;99.90;;;;;;5078187;28;20452;-84
2023/04/14 07:51:03;;;;;;;4.25;3.05;;;8.20;99.90;;;;;;5095193;28;20044;-84
2023/04/14 07:53:31;;;;;;;3.80;2.25;;;8.30;99.90;;;;;;5078092;28;20040;-84
2023/04/14 07:55:57;;;;;;;3.42;2.08;;;8.40;99.90;;;;;;5078257;28;20080;-84
2023/04/14 07:58:23;;;;;;;4.53;2.38;;;8.40;99.90;;;;;;5095284;28;20047;-84
2023/04/14 08:00:49;;;;;;;5.15;2.58;;;8.50;99.90;;;;;;5078205;28;20368;-89
2023/04/14 08:03:15;;;;;;;4.97;1.50;;;8.50;99.90;;;;;;5078327;28;20039;-86
2023/04/14 08:05:41;;;;;;;3.92;1.63;;;8.60;99.90;;;;;;5095739;28;20046;-87
2023/04/14 08:08:07;;;;;;;3.13;1.70;;;8.70;99.90;;;;;;5078554;28;20036;-87
2023/04/14 08:10:33;;;;;;;2.63;2.15;;;8.70;99.90;;;;;;5096733;28;20048;-87
2023/04/14 08:12:59;;;;;;;2.55;1.55;;;8.70;99.90;;;;;;5078180;28;20511;-86
2023/04/14 08:15:25;;;;;;;4.47;1.75;;;8.80;99.90;;;;;;5096594;28;20036;-86
2023/04/14 08:17:50;;;;;;;3.85;1.60;;;8.90;99.90;;;;;;5095369;28;20586;-86
2023/04/14 08:20:16;;;;;;;2.83;1.33;;;8.90;99.90;;;;;;5096592;28;20111;-87
2023/04/14 08:22:42;;;;;;;2.08;1.25;;;9.00;99.90;;;;;;5095864;28;20476;-87
2023/04/14 08:25:10;;;;;;;4.80;1.83;;;9.00;99.90;;;;;;5097037;28;20062;-87
2023/04/14 08:27:37;;;;;;;3.10;1.20;;;9.10;99.90;;;;;;5095954;28;20480;-88
2023/04/14 08:30:04;;;;;;;2.78;1.35;;;9.10;99.90;;;;;;5078613;28;20040;-88
2023/04/14 08:32:29;;;;;;;2.53;1.27;;;9.20;99.90;;;;;;5095819;28;20044;-87
2023/04/14 08:34:55;;;;;;;2.65;1.42;;;9.30;99.90;;;;;;5095643;28;20542;-89
2023/04/14 08:37:21;;;;;;;3.47;1.45;;;9.40;99.90;;;;;;5095944;28;20075;-88
2023/04/14 08:39:48;;;;;;;3.30;1.40;;;9.40;99.90;;;;;;5078370;28;20043;-88
2023/04/14 08:42:15;;;;;;;3.53;1.42;;;9.50;99.90;;;;;;5095074;28;20501;-88
2023/04/14 08:44:41;;;;;;;2.95;1.50;;;9.60;99.90;;;;;;5095178;28;20043;-87
2023/04/14 08:47:07;;;;;;;4.93;1.75;;;9.60;99.90;;;;;;5078188;28;20044;-86
2023/04/14 08:49:51;;;;;;;2.33;1.35;;;9.70;99.90;;;;;;5094463;28;20484;-87
2023/04/14 08:52:22;;;;;;;2.70;1.35;;;9.80;99.90;;;;;;5077675;28;20036;-89
2023/04/14 08:54:50;;;;;;;3.47;1.40;;;9.80;99.90;;;;;;5077614;28;20064;-86
2023/04/14 08:57:18;;;;;;;3.03;1.10;;;9.90;99.90;;;;;;5094499;28;20036;-85
2023/04/14 08:59:44;;;;;;;3.15;1.30;;;9.90;99.90;;;;;;5094845;28;20040;-86
2023/04/14 09:02:11;;;;;;;2.17;1.50;;;10.00;99.90;;;;;;5095847;28;20040;-86
2023/04/14 09:04:38;;;;;;;3.10;1.60;;;10.00;99.90;;;;;;5094477;28;20404;-87
2023/04/14 09:07:04;;;;;;;2.42;1.75;;;10.10;99.90;;;;;;5095605;28;20496;-87
2023/04/14 09:09:30;;;;;;;2.92;1.63;;;10.10;99.90;;;;;;5077525;28;20040;-87
2023/04/14 09:12:02;;;;;;;2.28;1.27;;;10.20;99.90;;;;;;5077258;28;20119;-87
2023/04/14 09:14:28;;;;;;;1.88;1.10;;;10.30;99.90;;;;;;5077474;28;20038;-89
2023/04/14 09:16:55;;;;;;;2.42;1.40;;;10.30;99.90;;;;;;5077544;28;20036;-87
2023/04/14 09:19:23;;;;;;;2.17;1.17;;;10.40;99.90;;;;;;5094627;28;20040;-89
2023/04/14 09:21:49;;;;;;;2.88;1.45;;;10.40;99.90;;;;;;5094639;28;20064;-88
2023/04/14 09:24:22;;;;;;;3.78;1.77;;;10.40;99.90;;;;;;5077471;28;20387;-87
2023/04/14 09:26:49;;;;;;;2.75;1.27;;;10.50;99.90;;;;;;5094144;28;20547;-88
2023/04/14 09:29:15;;;;;;;2.47;1.25;;;10.60;99.90;;;;;;5094557;28;20184;-87
2023/04/14 09:31:41;;;;;;;3.42;1.30;;;10.70;99.90;;;;;;5077109;28;20040;-87
2023/04/14 09:34:18;;;;;;;3.70;1.33;;;10.80;99.90;;;;;;5093749;28;20032;-87
2023/04/14 09:37:01;;;;;;;3.25;1.30;;;10.80;99.90;;;;;;5076968;28;20083;-88
2023/04/14 09:39:27;;;;;;;1.83;1.42;;;10.90;99.90;;;;;;5094662;28;20071;-88
2023/04/14 09:41:52;;;;;;;3.83;1.85;;;11.00;99.90;;;;;;5076512;28;20057;-88
2023/04/14 09:44:18;;;;;;;2.60;1.50;;;11.10;99.90;;;;;;5076781;28;20036;-88
2023/04/14 09:47:04;;;;;;;3.85;1.48;;;11.10;99.90;;;;;;5093756;28;20047;-88
2023/04/14 09:49:31;;;;;;;2.80;1.33;;;11.20;99.90;;;;;;5095208;28;20039;-88
2023/04/14 09:52:07;;;;;;;2.17;1.60;;;11.20;99.90;;;;;;5093738;28;20115;-86
2023/04/14 09:54:33;;;;;;;2.33;1.30;;;11.30;99.90;;;;;;5076752;28;20055;-86
2023/04/14 09:56:58;;;;;;;3.78;1.52;;;11.30;99.90;;;;;;5076170;28;20488;-85
2023/04/14 09:59:35;;;;;;;2.75;1.27;;;11.30;99.90;;;;;;5093634;28;20028;-85
2023/04/14 10:02:08;;;;;;;3.45;1.40;;;11.40;99.90;;;;;;5076801;28;20119;-87
2023/04/14 10:04:35;;;;;;;3.75;1.50;;;11.40;99.90;;;;;;5094122;28;20048;-87
2023/04/14 10:07:05;;;;;;;3.20;1.38;;;11.50;99.90;;;;;;5076544;28;20046;-86
2023/04/14 10:09:36;;;;;;;2.65;1.40;;;11.60;99.90;;;;;;5076408;28;20054;-87
2023/04/14 10:12:16;;;;;;;3.60;1.60;;;11.60;99.90;;;;;;5093086;28;20085;-86
2023/04/14 10:14:43;;;;;;;2.30;1.40;;;11.70;99.90;;;;;;5093211;28;20118;-87
2023/04/14 10:17:09;;;;;;;2.97;1.60;;;11.70;99.90;;;;;;5093606;28;20036;-86
2023/04/14 10:19:36;;;;;;;4.47;1.80;;;11.70;99.90;;;;;;5093017;28;20119;-86
2023/04/14 10:22:04;;;;;;;3.10;1.38;;;11.70;99.90;;;;;;5075640;28;20119;-84
2023/04/14 10:24:31;;;;;;;2.13;1.40;;;11.70;99.90;;;;;;5092329;28;20052;-82
2023/04/14 10:26:58;;;;;;;3.97;1.60;;;11.80;99.90;;;;;;5075484;28;20044;-83
2023/04/14 10:29:24;;;;;;;2.05;1.33;;;11.90;99.90;;;;;;5075640;28;20044;-84
2023/04/14 10:31:59;;;;;;;2.33;1.30;;;12.00;99.90;;;;;;5075391;28;20412;-83
2023/04/14 10:34:25;;;;;;;3.10;1.58;;;12.10;99.90;;;;;;5075449;28;20054;-83
2023/04/14 10:36:51;;;;;;;3.75;1.63;;;12.10;99.90;;;;;;5093801;28;20360;-85
2023/04/14 10:39:24;;;;;;;3.03;1.35;;;12.20;99.90;;;;;;5075594;28;20059;-84
2023/04/14 10:41:51;;;;;;;2.63;1.25;;;12.40;99.90;;;;;;5075752;28;20044;-82
2023/04/14 10:44:27;;;;;;;2.83;1.73;;;12.40;99.90;;;;;;5092463;28;20496;-85
2023/04/14 10:46:55;;;;;;;3.60;1.30;;;12.50;99.90;;;;;;5093697;28;20078;-80
2023/04/14 10:49:28;;;;;;;2.85;1.52;;;12.60;99.90;;;;;;5093624;28;20051;-83
2023/04/14 10:51:54;;;;;;;3.55;1.60;;;12.70;99.90;;;;;;5094299;28;20062;-81
2023/04/14 10:54:20;;;;;;;3.03;1.65;;;12.90;99.90;;;;;;5096437;28;20052;-81
2023/04/14 10:57:08;;;;;;;3.58;1.80;;;13.00;99.90;;;;;;5079641;28;20028;-85
2023/04/14 10:59:33;;;;;;;2.50;1.45;;;13.00;99.90;;;;;;5096624;28;20122;-85
2023/04/14 11:01:59;;;;;;;3.67;2.38;;;13.20;99.90;;;;;;5079638;28;20076;-85
2023/04/14 11:04:24;;;;;;;3.22;2.42;;;13.40;99.90;;;;;;5079632;28;20554;-86
2023/04/14 11:06:52;;;;;;;2.90;1.90;;;13.50;99.90;;;;;;5079485;28;20511;-85
2023/04/14 11:09:26;;;;;;;4.35;1.40;;;13.70;99.90;;;;;;5096235;28;20399;-84
2023/04/14 11:11:54;;;;;;;2.40;2.20;;;13.80;99.80;;;;;;5096313;28;20039;-85
2023/04/14 11:14:34;;;;;;;2.38;1.77;;;13.80;99.40;;;;;;5096387;28;20178;-85
2023/04/14 11:17:04;;;;;;;2.17;1.30;;;13.90;99.00;;;;;;5079287;28;20048;-86
2023/04/14 11:19:31;;;;;;;2.08;1.40;;;14.00;98.20;;;;;;5079193;28;20044;-84
2023/04/14 11:21:57;;;;;;;2.47;1.48;;;14.00;97.60;;;;;;5095659;28;20503;-86
2023/04/14 11:24:24;;;;;;;2.22;1.33;;;14.00;97.20;;;;;;5078732;28;20059;-84
2023/04/14 11:26:57;;;;;;;3.38;1.70;;;14.00;97.50;;;;;;5079310;28;20062;-87
2023/04/14 11:29:23;;;;;;;2.10;1.20;;;14.00;96.90;;;;;;5096133;28;20040;-87
2023/04/14 11:32:03;;;;;;;2.13;1.40;;;14.00;96.70;;;;;;5096135;28;20484;-87
2023/04/14 11:34:28;;;;;;;2.30;1.58;;;14.00;96.60;;;;;;5078562;28;20040;-85
2023/04/14 11:36:55;;;;;;;2.08;1.30;;;13.90;95.90;;;;;;5096065;28;20399;-87
2023/04/14 11:39:22;;;;;;;3.00;1.38;;;13.90;96.60;;;;;;5079030;28;20131;-85
2023/04/14 11:41:49;;;;;;;2.28;1.35;;;13.90;96.50;;;;;;5079376;28;20098;-87
2023/04/14 11:44:18;;;;;;;1.77;1.30;;;13.90;96.40;;;;;;5095723;28;20043;-84
2023/04/14 11:46:44;;;;;;;2.20;1.20;;;13.90;96.70;;;;;;5078683;28;20043;-84
2023/04/14 11:49:10;;;;;;;3.30;1.63;;;14.00;96.80;;;;;;5095772;28;20036;-83
2023/04/14 11:51:36;;;;;;;2.72;1.90;;;14.00;96.00;;;;;;5078162;28;20045;-84
2023/04/14 11:54:02;;;;;;;2.60;1.23;;;14.00;96.40;;;;;;5078151;28;20039;-84
2023/04/14 11:56:30;;;;;;;2.28;1.33;;;14.00;96.20;;;;;;5078199;28;20040;-85
2023/04/14 11:59:03;;;;;;;4.07;2.10;;;14.00;95.20;;;;;;5079116;28;20059;-83
2023/04/14 12:01:29;;;;;;;1.73;1.10;;;14.00;95.60;;;;;;5096523;28;20380;-85
2023/04/14 12:03:56;;;;;;;1.85;1.02;;;14.10;95.30;;;;;;5094558;28;20040;-84
2023/04/14 12:06:23;;;;;;;2.13;1.20;;;14.20;93.10;;;;;;5078086;28;20621;-84
2023/04/14 12:08:55;;;;;;;2.22;1.33;;;14.10;93.50;;;;;;5077807;28;20044;-84
2023/04/14 12:11:22;;;;;;;2.85;2.03;;;14.10;93.00;;;;;;5095880;28;20369;-84
2023/04/14 12:13:48;;;;;;;3.03;1.45;;;14.10;94.30;;;;;;5095821;28;20042;-85
2023/04/14 12:16:16;;;;;;;3.33;1.70;;;14.30;94.90;;;;;;5094958;28;20075;-84
2023/04/14 12:18:42;;;;;;;2.53;1.58;;;14.30;93.60;;;;;;5077844;28;20472;-84
2023/04/14 12:21:08;;;;;;;2.50;1.30;;;14.40;93.30;;;;;;5096078;28;20043;-85
2023/04/14 12:23:38;;;;;;;2.10;1.23;;;14.50;93.50;;;;;;5077596;28;20048;-85
2023/04/14 12:26:11;;;;;;;2.35;1.20;;;14.40;92.50;;;;;;5095681;28;20059;-84
2023/04/14 12:28:39;;;;;;;2.45;1.48;;;14.50;92.50;;;;;;5094668;28;20368;-85
2023/04/14 12:31:06;;;;;;;2.75;1.30;;;14.40;92.20;;;;;;5094627;28;20094;-84
2023/04/14 12:33:32;;;;;;;2.30;1.35;;;14.40;91.70;;;;;;5077368;28;20408;-85
2023/04/14 12:36:11;;;;;;;2.92;1.40;;;14.60;91.40;;;;;;5077426;28;20043;-85
2023/04/14 12:38:37;;;;;;;2.97;1.75;;;14.70;92.30;;;;;;5094342;28;20055;-85
2023/04/14 12:41:03;;;;;;;3.13;2.25;;;14.70;92.70;;;;;;5094448;28;20403;-85
2023/04/14 12:43:32;;;;;;;2.60;2.10;;;14.70;92.70;;;;;;5094304;28;20051;-85
2023/04/14 12:45:58;;;;;;;3.17;1.50;;;14.60;92.50;;;;;;5095563;28;20036;-84
2023/04/14 12:48:57;;;;;;;2.58;1.40;;;14.60;92.20;;;;;;5093953;28;20116;-82
2023/04/14 12:51:23;;;;;;;2.10;1.35;;;14.60;92.10;;;;;;5055248;28;20048;-78
2023/04/14 12:53:50;;;;;;;3.28;1.73;;;14.50;92.10;;;;;;5077110;28;20036;-85
2023/04/14 12:56:20;;;;;;;2.03;1.60;;;14.50;91.60;;;;;;5094213;28;20047;-86
2023/04/14 12:58:47;;;;;;;2.47;1.52;;;14.60;91.60;;;;;;5094221;28;20032;-83